Saint Francis, KS

6:11 AM CST on March 01, 2015 (GMT -0600)
South Center on Hwy 36 | Change Station
CLOSE
Current Station
Personal Weather Station
Location: St Francis, KS
Elevation: 3350 ft
Nearby Weather Stations

Elev 3350 ft 39.77 °N, 101.80 °W | Updated 1 minute ago

Overcast
Overcast
21.7 °F
Feels Like 22 °F
N
2.0
Wind Variable Wind from NE
Gusts 5.0 mph

Today
High -- | Low -- °F
--% Chance of Precip.
Yesterday
High -- | Low -- °F
Precip. -- in
7:20 AM 6:39 PM
Waxing Gibbous, 84% visible
Pressure 30.18 in
Visibility 10.0 miles
Clouds Overcast 2600 ft
Windchill 22 °F
Dew Point 20 °F
Humidity 92%
Rainfall 0.09 in
Snow Depth Not available.
UV 0 out of 12
Pollen 1.30 out of 12
Air Quality Not available.
Flu Activity Not available.
METAR KSYF 011155Z AUTO 00000KT 10SM OVC026 M06/M08 A3018 RMK AO2 T10611085 11061 21069

More Conditions Fewer Conditions

Pressure 30.18 in
Visibility 10.0 miles
Clouds Overcast 2600 ft
Windchill 22 °F
Dew Point 20 °F
Humidity 92%
Rainfall 0.09 in
Snow Depth Not available.
UV 0 out of 12
Pollen 1.30 out of 12
Air Quality Not available.
Flu Activity Not available.
METAR KSYF 011155Z AUTO 00000KT 10SM OVC026 M06/M08 A3018 RMK AO2 T10611085 11061 21069

More Conditions Fewer Conditions

10-Day Weather Forecast

Almanac

Astronomy

Mar. 01, 2015 Rise Set
Actual Time
Civil Twilight
Nautical Twilight
Astronomical Twilight
Moon
Length of Visible Light
Length of Day
Tomorrow will be .
, % of the Moon is Illuminated

Today's Extremes

State Highs State Lows

Community

WunderPhotos

Upload Photos

1,801,365 photos uploaded!

WunderBlogs® & News

Nearby

Air Quality

  Air Quality AQ Index Pollutant
Not available.

Snow Depth

Station Depth Elevation

Earthquake Activity

City Distance Mag. Time & Date
Minimum magnitude displayed is 2.5.

Coastal Water Temperatures

Place Temperature

Nearby Weather Stations